Time;durP1;ratioP1;P1;durP2;ratioP2;P2;SDS_P1;SDS_P2;PMS_P1;PMS_P2;Temp;Humidity;BMP_temperature;BMP_pressure;BME280_temperature;BME280_humidity;BME280_pressure;Samples;Min_cycle;Max_cycle;Signal;HPM_P1;HPM_P2
2022/03/18 00:00:01;;;;;;;51.17;33.35;;;9.00;59.80;;;;;;5072270;28;20025;-64
2022/03/18 00:02:27;;;;;;;48.88;34.17;;;9.00;59.80;;;;;;5073894;28;20031;-60
2022/03/18 00:04:55;;;;;;;54.05;34.42;;;9.00;59.70;;;;;;5072621;28;20032;-61
2022/03/18 00:07:22;;;;;;;46.92;32.92;;;9.00;59.70;;;;;;5069115;28;20615;-61
2022/03/18 00:09:48;;;;;;;48.45;34.95;;;9.00;59.60;;;;;;5073068;28;20109;-58
2022/03/18 00:12:14;;;;;;;48.47;34.45;;;9.10;59.50;;;;;;5071663;28;20043;-58
2022/03/18 00:14:40;;;;;;;44.70;32.08;;;9.00;59.40;;;;;;5070180;28;20049;-59
2022/03/18 00:17:08;;;;;;;52.00;34.50;;;9.00;59.50;;;;;;5071174;28;20611;-59
2022/03/18 00:19:38;;;;;;;47.22;33.75;;;9.00;59.70;;;;;;5071218;28;20024;-58
2022/03/18 00:22:05;;;;;;;45.80;32.78;;;9.00;59.70;;;;;;5086687;28;20097;-61
2022/03/18 00:24:32;;;;;;;42.78;32.17;;;9.00;59.80;;;;;;5075171;28;20028;-58
2022/03/18 00:26:59;;;;;;;48.47;32.15;;;9.00;59.90;;;;;;5073468;28;20031;-59
2022/03/18 00:29:25;;;;;;;48.70;33.92;;;9.00;60.10;;;;;;5071331;28;20636;-58
2022/03/18 00:31:51;;;;;;;48.15;33.38;;;8.90;60.20;;;;;;5073860;28;20070;-59
2022/03/18 00:34:17;;;;;;;50.78;32.22;;;8.90;60.60;;;;;;5091443;28;20028;-60
2022/03/18 00:36:43;;;;;;;46.22;31.77;;;8.80;60.90;;;;;;5080462;28;20479;-59
2022/03/18 00:39:09;;;;;;;44.78;31.23;;;8.80;61.00;;;;;;5072587;28;20032;-59
2022/03/18 00:41:35;;;;;;;44.38;32.65;;;8.80;61.10;;;;;;5071982;28;20116;-60
2022/03/18 00:44:00;;;;;;;44.22;30.88;;;8.90;61.10;;;;;;5090873;28;20024;-58
2022/03/18 00:46:26;;;;;;;40.33;30.30;;;8.90;61.10;;;;;;5091023;28;20067;-60
2022/03/18 00:54:20;;;;;;;46.05;32.88;;;8.90;61.10;;;;;;5058666;28;20031;-60
2022/03/18 00:56:47;;;;;;;43.63;31.27;;;8.90;62.00;;;;;;5072883;28;20020;-59
2022/03/18 00:59:12;;;;;;;44.67;31.58;;;9.00;61.30;;;;;;5072173;28;20036;-59
2022/03/18 01:01:38;;;;;;;45.28;31.48;;;9.00;61.30;;;;;;5079153;28;20029;-59
2022/03/18 01:04:04;;;;;;;40.33;30.75;;;9.00;61.70;;;;;;5072802;28;20165;-62
2022/03/18 01:06:31;;;;;;;43.00;30.67;;;9.00;61.70;;;;;;5072040;28;20052;-56
2022/03/18 01:08:57;;;;;;;43.47;32.38;;;9.00;61.80;;;;;;5071379;28;20056;-59
2022/03/18 01:11:23;;;;;;;44.45;32.70;;;9.00;61.70;;;;;;5069728;28;20021;-60
2022/03/18 01:13:49;;;;;;;42.78;31.30;;;9.00;61.70;;;;;;5091996;28;20028;-60
2022/03/18 01:16:15;;;;;;;43.08;31.48;;;9.00;61.80;;;;;;5075403;28;20016;-60
2022/03/18 01:18:41;;;;;;;45.90;31.85;;;9.00;61.90;;;;;;5052455;28;20094;-58
2022/03/18 01:21:06;;;;;;;48.30;33.03;;;9.00;62.00;;;;;;5052178;28;20033;-61
2022/03/18 01:23:32;;;;;;;45.42;33.22;;;8.90;62.10;;;;;;5087629;28;20542;-59
2022/03/18 01:25:58;;;;;;;46.35;32.33;;;8.90;62.20;;;;;;5092802;28;20457;-59
2022/03/18 01:28:24;;;;;;;44.13;32.60;;;8.90;62.80;;;;;;5091457;28;20067;-60
2022/03/18 01:30:50;;;;;;;43.72;31.70;;;8.90;62.50;;;;;;5054755;28;20484;-58
2022/03/18 01:33:15;;;;;;;49.85;32.92;;;8.80;62.70;;;;;;5065284;28;20020;-59
2022/03/18 01:35:41;;;;;;;48.15;34.97;;;8.80;63.00;;;;;;5074722;28;20447;-59
2022/03/18 01:38:07;;;;;;;46.83;33.65;;;8.80;63.20;;;;;;5092399;28;20059;-61
2022/03/18 01:40:33;;;;;;;51.42;34.85;;;8.80;63.10;;;;;;5092155;28;20044;-59
2022/03/18 01:42:59;;;;;;;45.33;32.42;;;8.80;63.20;;;;;;5079625;28;20075;-59
2022/03/18 01:45:25;;;;;;;50.13;34.95;;;8.70;63.60;;;;;;5071437;28;20048;-57
2022/03/18 01:47:51;;;;;;;48.17;33.88;;;8.60;64.20;;;;;;5051660;28;20029;-60
2022/03/18 01:50:17;;;;;;;47.58;31.15;;;8.60;64.30;;;;;;5063953;28;20111;-60
2022/03/18 01:52:45;;;;;;;48.33;35.33;;;8.70;64.20;;;;;;5082078;28;20052;-59
2022/03/18 01:55:12;;;;;;;49.30;34.33;;;8.70;64.10;;;;;;5074305;28;20091;-61
2022/03/18 01:57:38;;;;;;;45.38;33.45;;;8.70;63.90;;;;;;5092126;28;20023;-58
2022/03/18 02:00:05;;;;;;;50.90;35.53;;;8.70;64.10;;;;;;5092150;28;20030;-58
2022/03/18 02:02:32;;;;;;;51.13;36.00;;;8.60;64.00;;;;;;5089910;28;20468;-58
2022/03/18 02:04:58;;;;;;;50.35;36.15;;;8.50;64.20;;;;;;5079199;28;20035;-59
2022/03/18 02:07:24;;;;;;;52.42;35.53;;;8.50;64.10;;;;;;5085807;28;20028;-60
2022/03/18 02:09:49;;;;;;;50.42;36.33;;;8.60;64.00;;;;;;5071630;28;20405;-59
2022/03/18 02:12:15;;;;;;;51.13;36.03;;;8.60;63.80;;;;;;5074908;28;20114;-59
2022/03/18 02:14:45;;;;;;;47.70;36.22;;;8.60;63.80;;;;;;5091778;28;20024;-58
2022/03/18 02:17:13;;;;;;;53.42;37.90;;;8.50;64.20;;;;;;5091193;28;20099;-62
2022/03/18 02:19:41;;;;;;;55.70;38.58;;;8.40;64.50;;;;;;5068724;28;20166;-58
2022/03/18 02:22:15;;;;;;;55.05;37.60;;;8.30;64.50;;;;;;5055118;28;20028;-59
2022/03/18 02:24:43;;;;;;;54.78;36.53;;;8.30;64.80;;;;;;5090042;28;20034;-59
2022/03/18 02:27:10;;;;;;;52.60;37.65;;;8.20;65.00;;;;;;5075080;28;20024;-58
2022/03/18 02:29:36;;;;;;;51.92;37.75;;;8.20;65.10;;;;;;5071312;28;20044;-59
2022/03/18 02:32:04;;;;;;;52.17;37.63;;;8.30;65.20;;;;;;5074709;28;20381;-58
2022/03/18 02:34:30;;;;;;;52.55;39.80;;;8.20;65.00;;;;;;5090574;28;20469;-60
2022/03/18 02:36:57;;;;;;;55.85;38.22;;;8.20;65.10;;;;;;5056833;28;20036;-60
2022/03/18 02:39:23;;;;;;;49.05;36.97;;;8.20;65.10;;;;;;5070623;28;20033;-60
2022/03/18 02:41:48;;;;;;;53.20;38.17;;;8.20;65.00;;;;;;5072118;28;20036;-58
2022/03/18 02:44:14;;;;;;;54.03;38.00;;;8.10;65.50;;;;;;5089683;28;20028;-62
2022/03/18 02:46:40;;;;;;;56.45;38.25;;;8.10;65.40;;;;;;5077627;28;20067;-59
2022/03/18 02:49:06;;;;;;;52.80;37.88;;;8.10;65.30;;;;;;5077500;28;20028;-59
2022/03/18 02:51:35;;;;;;;54.90;38.10;;;8.10;65.30;;;;;;5090891;28;20857;-57
2022/03/18 02:54:00;;;;;;;57.55;38.78;;;8.10;65.40;;;;;;5070215;28;20032;-58
2022/03/18 02:56:26;;;;;;;51.67;36.35;;;8.00;65.30;;;;;;5069436;28;20032;-58
2022/03/18 02:58:52;;;;;;;54.33;37.58;;;8.00;65.50;;;;;;5071396;28;20386;-58
2022/03/18 03:01:18;;;;;;;57.55;39.78;;;7.90;66.00;;;;;;5070448;28;20115;-57
2022/03/18 03:03:43;;;;;;;53.15;39.03;;;7.80;66.50;;;;;;5071381;28;20056;-59
2022/03/18 03:08:53;;;;;;;55.80;38.38;;;7.60;67.20;;;;;;5067803;28;20040;-59
2022/03/18 03:11:22;;;;;;;58.97;41.72;;;7.70;67.10;;;;;;5048984;28;20021;-59
2022/03/18 03:13:51;;;;;;;51.97;38.72;;;7.70;67.20;;;;;;5085352;28;20062;-58
2022/03/18 03:16:19;;;;;;;56.13;40.75;;;7.70;67.30;;;;;;5089372;28;20069;-61
2022/03/18 03:18:45;;;;;;;61.13;39.97;;;7.80;67.50;;;;;;5091225;28;20477;-58
2022/03/18 03:21:11;;;;;;;56.50;39.63;;;7.70;67.50;;;;;;5089654;28;20393;-59
2022/03/18 03:23:55;;;;;;;55.88;39.25;;;7.70;67.50;;;;;;5082706;28;20024;-57
2022/03/18 03:26:21;;;;;;;60.15;40.80;;;7.70;67.60;;;;;;5087033;28;20111;-58
2022/03/18 03:28:47;;;;;;;58.50;40.45;;;7.80;67.60;;;;;;5079553;28;20438;-58
2022/03/18 03:31:13;;;;;;;59.00;39.85;;;7.80;67.50;;;;;;5070832;28;20020;-58
2022/03/18 03:33:38;;;;;;;57.45;39.58;;;7.80;67.60;;;;;;5085541;28;20111;-58
2022/03/18 03:36:05;;;;;;;56.40;39.55;;;7.80;67.80;;;;;;5080233;28;20028;-58
2022/03/18 03:38:30;;;;;;;55.38;38.72;;;7.80;68.20;;;;;;5071974;28;20124;-58
2022/03/18 03:40:56;;;;;;;61.10;39.85;;;7.80;68.00;;;;;;5061771;28;20572;-59
2022/03/18 03:43:22;;;;;;;59.70;41.28;;;7.80;67.70;;;;;;5053658;28;20387;-59
2022/03/18 03:45:48;;;;;;;54.05;38.13;;;7.80;67.60;;;;;;5062649;28;20335;-59
2022/03/18 03:48:13;;;;;;;54.28;39.30;;;7.80;67.80;;;;;;5072995;28;20029;-57
2022/03/18 03:50:40;;;;;;;51.03;37.05;;;7.90;67.80;;;;;;5073502;28;20027;-59
2022/03/18 03:53:07;;;;;;;52.72;37.25;;;8.00;67.60;;;;;;5074347;28;20466;-58
2022/03/18 03:55:38;;;;;;;56.83;38.35;;;8.00;67.40;;;;;;5069805;28;20028;-59
2022/03/18 03:58:05;;;;;;;51.75;37.35;;;8.00;67.40;;;;;;5072895;28;20023;-58
2022/03/18 04:00:31;;;;;;;57.65;38.00;;;8.10;67.30;;;;;;5073207;28;20389;-59
2022/03/18 04:02:57;;;;;;;48.22;36.20;;;8.10;67.90;;;;;;5087549;28;20107;-58
2022/03/18 04:05:22;;;;;;;52.78;37.08;;;8.10;67.30;;;;;;5089702;28;20040;-61
2022/03/18 04:07:48;;;;;;;50.95;36.92;;;8.10;67.30;;;;;;5086620;28;20039;-58
2022/03/18 04:10:14;;;;;;;51.70;36.35;;;8.10;67.30;;;;;;5074229;28;20056;-59
2022/03/18 04:12:41;;;;;;;53.20;36.75;;;8.20;67.40;;;;;;5073214;28;20104;-58
2022/03/18 04:15:10;;;;;;;52.05;38.13;;;8.10;67.30;;;;;;5064498;28;20034;-59
2022/03/18 04:17:44;;;;;;;52.13;37.92;;;8.10;67.40;;;;;;5090353;28;20022;-58
2022/03/18 04:20:17;;;;;;;53.05;36.70;;;8.20;67.50;;;;;;5094026;28;20153;-60
2022/03/18 04:22:43;;;;;;;49.67;36.75;;;8.10;68.00;;;;;;5072264;28;20127;-59
2022/03/18 04:25:10;;;;;;;52.33;37.92;;;8.10;67.50;;;;;;5078766;28;20103;-59
2022/03/18 04:27:36;;;;;;;53.42;36.63;;;8.20;67.50;;;;;;5075186;28;20034;-59
2022/03/18 04:30:04;;;;;;;56.75;39.22;;;8.20;68.10;;;;;;5065832;28;20029;-58
2022/03/18 04:32:29;;;;;;;50.40;37.83;;;8.20;67.60;;;;;;5055116;28;20021;-58
2022/03/18 04:34:55;;;;;;;56.40;38.65;;;8.20;67.60;;;;;;5071360;28;20031;-58
2022/03/18 04:37:21;;;;;;;55.20;38.45;;;8.10;68.30;;;;;;5091333;28;20028;-61
2022/03/18 04:39:46;;;;;;;52.60;37.83;;;8.10;68.40;;;;;;5091770;28;20024;-57
2022/03/18 04:42:12;;;;;;;52.85;38.75;;;8.10;67.90;;;;;;5093516;28;20381;-59
2022/03/18 04:44:38;;;;;;;56.42;39.28;;;8.10;67.90;;;;;;5085205;28;20025;-58
2022/03/18 04:47:04;;;;;;;55.95;38.17;;;8.20;67.80;;;;;;5077056;28;20050;-59
2022/03/18 04:49:30;;;;;;;60.35;40.17;;;8.20;67.70;;;;;;5092595;28;20023;-59
2022/03/18 04:51:56;;;;;;;58.40;40.20;;;8.10;67.80;;;;;;5093273;28;20233;-58
2022/03/18 04:54:40;;;;;;;58.22;39.50;;;8.10;68.10;;;;;;5093589;28;20493;-59
2022/03/18 04:57:15;;;;;;;56.03;38.25;;;8.00;68.30;;;;;;5075732;28;20465;-60
2022/03/18 04:59:42;;;;;;;59.20;40.33;;;8.00;68.40;;;;;;5072486;28;20040;-59
2022/03/18 05:02:12;;;;;;;62.45;41.80;;;8.00;68.40;;;;;;5076510;28;20477;-59
2022/03/18 05:04:38;;;;;;;58.28;41.67;;;8.00;68.40;;;;;;5074739;28;20070;-58
2022/03/18 05:07:05;;;;;;;61.65;41.35;;;7.90;68.50;;;;;;5093032;28;20044;-61
2022/03/18 05:09:31;;;;;;;63.83;43.75;;;7.90;68.80;;;;;;5091050;28;20035;-58
2022/03/18 05:11:56;;;;;;;64.53;41.80;;;7.90;68.90;;;;;;5060429;28;20040;-59
2022/03/18 05:14:22;;;;;;;62.75;42.65;;;7.90;68.90;;;;;;5080862;28;20028;-60
2022/03/18 05:16:49;;;;;;;64.00;42.72;;;7.80;69.00;;;;;;5051929;28;20029;-60
2022/03/18 05:19:15;;;;;;;62.78;43.22;;;7.80;69.10;;;;;;5053044;28;20035;-60
2022/03/18 05:21:41;;;;;;;65.43;43.60;;;7.90;69.20;;;;;;5052044;28;20108;-59
2022/03/18 05:24:08;;;;;;;62.53;42.92;;;7.90;69.00;;;;;;5082813;28;20090;-61
2022/03/18 05:26:34;;;;;;;62.05;42.88;;;7.90;68.80;;;;;;5071996;28;20025;-59
2022/03/18 05:29:01;;;;;;;67.15;43.72;;;7.90;69.10;;;;;;5072469;28;20541;-62
2022/03/18 05:31:27;;;;;;;67.88;47.83;;;7.90;69.30;;;;;;5076795;28;20035;-63
2022/03/18 05:33:54;;;;;;;64.03;44.20;;;7.90;69.30;;;;;;5069601;28;20446;-60
2022/03/18 05:36:20;;;;;;;67.38;44.70;;;7.80;69.40;;;;;;5052938;28;20024;-60
2022/03/18 05:38:46;;;;;;;63.58;44.35;;;7.80;69.70;;;;;;5086737;28;20039;-62
2022/03/18 05:41:12;;;;;;;68.03;46.60;;;7.80;69.80;;;;;;5090757;28;20392;-60
2022/03/18 05:43:39;;;;;;;65.97;44.53;;;7.80;69.90;;;;;;5070306;28;20030;-60
2022/03/18 05:46:04;;;;;;;67.20;45.95;;;7.80;70.00;;;;;;5082299;28;20362;-59
2022/03/18 05:48:30;;;;;;;63.53;44.42;;;7.80;69.90;;;;;;5071149;28;20081;-63
2022/03/18 05:50:56;;;;;;;66.35;45.58;;;7.80;70.10;;;;;;5071095;28;20024;-58
2022/03/18 05:53:22;;;;;;;68.47;43.88;;;7.80;69.90;;;;;;5073610;28;20575;-59
2022/03/18 05:58:48;;;;;;;66.57;43.10;;;8.00;69.60;;;;;;5036486;28;20224;-60
2022/03/18 06:01:14;;;;;;;60.90;42.38;;;8.10;69.40;;;;;;5057987;28;20453;-59
2022/03/18 06:03:40;;;;;;;65.97;43.28;;;8.10;69.20;;;;;;5073989;28;20393;-58
2022/03/18 06:06:06;;;;;;;63.22;42.83;;;8.20;69.20;;;;;;5079308;28;20052;-59
2022/03/18 06:14:00;;;;;;;65.85;42.45;;;8.30;68.70;;;;;;5071645;28;20318;-59
2022/03/18 06:16:26;;;;;;;61.13;42.53;;;8.40;68.50;;;;;;5071760;28;20020;-62
2022/03/18 06:18:51;;;;;;;66.88;45.95;;;8.40;69.00;;;;;;5071179;28;20027;-60
2022/03/18 06:21:20;;;;;;;63.58;44.22;;;8.50;68.20;;;;;;5071855;28;20024;-58
2022/03/18 06:23:45;;;;;;;69.32;42.83;;;8.60;67.90;;;;;;5069295;28;20119;-58
2022/03/18 06:26:11;;;;;;;61.20;42.72;;;8.70;67.60;;;;;;5071040;28;20092;-59
2022/03/18 06:28:37;;;;;;;65.13;45.28;;;8.80;67.20;;;;;;5070323;28;20040;-59
2022/03/18 06:31:03;;;;;;;65.97;43.97;;;8.90;67.00;;;;;;5071012;28;20028;-58
2022/03/18 06:33:30;;;;;;;65.38;45.15;;;8.80;66.60;;;;;;5070156;28;20028;-59
2022/03/18 06:35:56;;;;;;;67.18;43.40;;;8.90;66.70;;;;;;5069460;28;20075;-58
2022/03/18 06:38:21;;;;;;;62.42;42.13;;;9.00;66.40;;;;;;5070692;28;20029;-61
2022/03/18 06:40:48;;;;;;;61.13;40.58;;;9.10;66.10;;;;;;5068863;28;20032;-61
2022/03/18 06:43:14;;;;;;;65.28;43.65;;;9.10;65.80;;;;;;5067969;28;20465;-61
2022/03/18 06:45:41;;;;;;;65.50;45.58;;;9.20;65.60;;;;;;5071177;28;20032;-62
2022/03/18 06:48:06;;;;;;;62.30;42.72;;;9.30;65.50;;;;;;5070558;28;20024;-61
2022/03/18 06:50:32;;;;;;;58.88;41.80;;;9.30;65.20;;;;;;5068718;28;20111;-65
2022/03/18 06:52:58;;;;;;;62.72;42.70;;;9.40;65.10;;;;;;5070703;28;20488;-62
2022/03/18 06:55:24;;;;;;;62.15;41.67;;;9.40;64.80;;;;;;5068880;28;20458;-61
2022/03/18 06:57:49;;;;;;;69.47;46.95;;;9.40;64.70;;;;;;5065359;28;20017;-62
2022/03/18 07:00:15;;;;;;;61.70;42.17;;;9.50;64.70;;;;;;5068202;28;20474;-61
2022/03/18 07:02:41;;;;;;;60.55;40.95;;;9.50;64.60;;;;;;5067333;28;20012;-61
2022/03/18 07:05:08;;;;;;;61.08;42.20;;;9.60;64.50;;;;;;5051525;28;20443;-60
2022/03/18 07:07:34;;;;;;;58.20;41.53;;;9.60;64.00;;;;;;5066789;28;20123;-67
2022/03/18 07:10:01;;;;;;;59.53;41.38;;;9.70;64.00;;;;;;5073225;28;20108;-61
2022/03/18 07:12:27;;;;;;;55.90;39.70;;;9.80;63.70;;;;;;5074942;28;20501;-61
2022/03/18 07:14:53;;;;;;;60.15;40.17;;;10.00;63.40;;;;;;5073566;28;20060;-60
2022/03/18 07:20:04;;;;;;;60.20;41.42;;;10.10;63.10;;;;;;5064885;28;20412;-60
2022/03/18 07:22:29;;;;;;;57.65;38.53;;;10.20;62.50;;;;;;5073764;28;20082;-61
2022/03/18 07:24:55;;;;;;;58.00;41.47;;;10.30;62.30;;;;;;5073542;28;20340;-60
2022/03/18 07:27:20;;;;;;;55.90;41.38;;;10.40;61.90;;;;;;5074627;28;20020;-60
2022/03/18 07:29:46;;;;;;;56.72;40.42;;;10.50;61.50;;;;;;5072648;28;20076;-59
2022/03/18 07:32:12;;;;;;;54.45;40.63;;;10.70;61.40;;;;;;5073618;28;20028;-62
2022/03/18 07:34:37;;;;;;;58.45;41.95;;;10.90;60.70;;;;;;5073443;28;20056;-66
2022/03/18 07:37:03;;;;;;;60.30;40.50;;;11.00;60.30;;;;;;5073255;28;20032;-60
2022/03/18 07:39:29;;;;;;;58.83;41.65;;;11.20;59.60;;;;;;5071275;28;20465;-60
2022/03/18 07:41:55;;;;;;;53.25;39.65;;;11.30;59.10;;;;;;5071971;28;20060;-60
2022/03/18 07:44:20;;;;;;;59.85;40.03;;;11.30;59.00;;;;;;5074145;28;20498;-60
2022/03/18 07:46:46;;;;;;;58.90;41.00;;;11.40;58.60;;;;;;5073422;28;20051;-61
2022/03/18 07:49:12;;;;;;;58.35;40.45;;;11.50;58.50;;;;;;5073682;28;20466;-61
2022/03/18 07:51:38;;;;;;;57.28;39.17;;;11.60;58.00;;;;;;5072967;28;20024;-64
2022/03/18 07:54:04;;;;;;;52.45;38.72;;;11.80;57.60;;;;;;5073100;28;20412;-63
2022/03/18 07:56:30;;;;;;;59.08;39.97;;;12.00;57.10;;;;;;5060311;28;20025;-60
2022/03/18 07:58:56;;;;;;;58.90;40.53;;;12.30;57.20;;;;;;5069969;28;20039;-61
2022/03/18 08:01:21;;;;;;;54.38;39.53;;;12.70;56.50;;;;;;5072140;28;20028;-62
2022/03/18 08:03:47;;;;;;;56.17;40.22;;;13.00;54.20;;;;;;5069693;28;20119;-62
2022/03/18 08:06:13;;;;;;;57.25;40.38;;;13.00;54.20;;;;;;5072482;28;20052;-61
2022/03/18 08:08:38;;;;;;;53.35;40.13;;;13.30;53.60;;;;;;5073344;28;20029;-63
2022/03/18 08:11:05;;;;;;;57.78;41.38;;;13.50;53.60;;;;;;5071993;28;20047;-61
2022/03/18 08:13:30;;;;;;;58.08;40.78;;;13.80;52.70;;;;;;5062086;28;20044;-60
2022/03/18 08:15:56;;;;;;;54.20;40.95;;;13.90;52.30;;;;;;5071559;28;20513;-62
2022/03/18 08:18:22;;;;;;;56.97;40.70;;;14.10;51.70;;;;;;5072912;28;20028;-61
2022/03/18 08:20:51;;;;;;;54.22;41.25;;;14.10;51.00;;;;;;5069519;28;20024;-60
2022/03/18 08:23:17;;;;;;;54.65;40.30;;;14.00;51.10;;;;;;5072890;28;20111;-61
2022/03/18 08:25:43;;;;;;;54.22;39.85;;;14.10;51.10;;;;;;5072588;28;20111;-62
2022/03/18 08:28:09;;;;;;;51.40;38.65;;;13.90;50.90;;;;;;5073329;28;20025;-61
2022/03/18 08:30:35;;;;;;;57.47;40.15;;;14.00;51.10;;;;;;5069659;28;20107;-61
2022/03/18 08:33:01;;;;;;;53.28;39.42;;;13.90;50.90;;;;;;5062234;28;20056;-61
2022/03/18 08:35:28;;;;;;;56.78;40.63;;;14.00;51.20;;;;;;5064023;28;20029;-61
2022/03/18 08:37:56;;;;;;;52.83;40.47;;;14.20;51.10;;;;;;5061731;28;20016;-61
2022/03/18 08:40:28;;;;;;;57.85;41.35;;;14.10;50.40;;;;;;5073589;28;20028;-61
2022/03/18 08:42:55;;;;;;;53.92;40.80;;;13.90;50.50;;;;;;5055655;28;20112;-61
2022/03/18 08:45:21;;;;;;;49.05;40.47;;;13.70;51.10;;;;;;5053498;28;20074;-60
2022/03/18 08:47:47;;;;;;;57.70;43.35;;;13.60;51.50;;;;;;5052471;28;20459;-61
2022/03/18 08:50:13;;;;;;;60.88;43.03;;;13.50;51.60;;;;;;5064706;28;20512;-62
2022/03/18 08:52:40;;;;;;;56.08;42.47;;;13.60;51.90;;;;;;5073064;28;20033;-60
2022/03/18 08:55:07;;;;;;;51.67;40.40;;;13.60;51.60;;;;;;5070672;28;20029;-60
2022/03/18 08:57:35;;;;;;;60.35;42.50;;;13.60;51.80;;;;;;5072086;28;20021;-60
2022/03/18 09:00:01;;;;;;;58.75;40.85;;;13.70;51.90;;;;;;5070172;28;20024;-61
2022/03/18 09:02:27;;;;;;;52.00;39.83;;;13.80;51.90;;;;;;5071690;28;20036;-61
2022/03/18 09:04:52;;;;;;;57.40;39.38;;;14.00;51.50;;;;;;5071859;28;20362;-62
2022/03/18 09:07:19;;;;;;;54.47;39.80;;;14.10;51.10;;;;;;5072815;28;20102;-61
2022/03/18 09:09:45;;;;;;;51.95;40.65;;;14.00;50.90;;;;;;5069275;28;20033;-65
2022/03/18 09:12:10;;;;;;;54.50;39.92;;;13.90;51.30;;;;;;5070883;28;20470;-62
2022/03/18 09:14:36;;;;;;;50.47;40.85;;;13.90;51.30;;;;;;5071342;28;20094;-61
2022/03/18 09:17:02;;;;;;;62.03;42.60;;;13.90;51.70;;;;;;5071071;28;20052;-61
2022/03/18 09:19:28;;;;;;;62.67;44.95;;;13.90;51.50;;;;;;5070806;28;20029;-60
2022/03/18 09:21:54;;;;;;;60.28;44.22;;;14.10;51.60;;;;;;5086323;28;20016;-60
2022/03/18 09:24:19;;;;;;;61.95;45.92;;;14.10;51.30;;;;;;5072022;28;20546;-61
2022/03/18 09:26:45;;;;;;;56.47;44.00;;;14.20;51.50;;;;;;5071966;28;20029;-63
2022/03/18 09:29:12;;;;;;;68.43;43.85;;;14.30;51.30;;;;;;5068138;28;20039;-60
2022/03/18 09:31:37;;;;;;;55.97;44.65;;;14.50;50.80;;;;;;5070465;28;20021;-60
2022/03/18 09:34:04;;;;;;;57.67;43.72;;;14.70;50.20;;;;;;5050473;28;20783;-61
2022/03/18 09:36:31;;;;;;;59.83;43.53;;;14.60;50.30;;;;;;5070444;28;20040;-60
2022/03/18 09:38:57;;;;;;;59.88;43.22;;;14.70;50.20;;;;;;5070980;28;20047;-60
2022/03/18 09:41:23;;;;;;;60.53;45.70;;;14.60;50.30;;;;;;5068076;28;20028;-60
2022/03/18 09:43:49;;;;;;;54.13;43.75;;;14.70;50.50;;;;;;5062118;28;20385;-60
2022/03/18 09:46:15;;;;;;;52.50;42.90;;;14.70;50.30;;;;;;5069777;28;20022;-61
2022/03/18 09:48:41;;;;;;;73.15;45.40;;;14.80;50.30;;;;;;5068268;28;20028;-63
2022/03/18 09:51:08;;;;;;;54.95;42.55;;;14.70;50.10;;;;;;5052475;28;20032;-61
2022/03/18 09:53:34;;;;;;;57.00;43.47;;;14.80;49.70;;;;;;5070207;28;20028;-60
2022/03/18 09:56:00;;;;;;;56.42;41.50;;;14.80;49.90;;;;;;5069165;28;20020;-61
2022/03/18 09:58:44;;;;;;;55.42;43.58;;;14.70;50.30;;;;;;5071656;28;20017;-61
2022/03/18 10:01:10;;;;;;;52.67;41.33;;;14.80;50.20;;;;;;5069435;28;20028;-60
2022/03/18 10:03:39;;;;;;;49.30;39.83;;;14.80;50.20;;;;;;5071394;28;20017;-60
2022/03/18 10:06:06;;;;;;;51.67;39.80;;;14.60;50.50;;;;;;5068609;28;20048;-61
2022/03/18 10:08:44;;;;;;;49.33;40.28;;;14.50;51.10;;;;;;5067594;28;20107;-61
2022/03/18 10:11:20;;;;;;;51.60;38.50;;;14.40;51.50;;;;;;5070383;28;20016;-61
2022/03/18 10:13:51;;;;;;;51.83;41.70;;;14.50;51.30;;;;;;5066218;28;20052;-63
2022/03/18 10:16:37;;;;;;;50.65;40.92;;;14.40;51.60;;;;;;5065459;28;20024;-61
2022/03/18 10:19:05;;;;;;;51.70;41.05;;;14.40;51.70;;;;;;5059048;28;20481;-61
2022/03/18 10:21:30;;;;;;;51.92;41.28;;;14.20;51.90;;;;;;5064268;28;20082;-62
2022/03/18 10:24:09;;;;;;;52.80;41.17;;;14.20;52.30;;;;;;5065357;28;20024;-61
2022/03/18 10:26:37;;;;;;;52.72;41.15;;;14.20;52.60;;;;;;5069397;28;20020;-60
2022/03/18 10:29:04;;;;;;;50.72;41.30;;;14.20;52.30;;;;;;5072494;28;20062;-62
2022/03/18 10:31:30;;;;;;;53.28;40.15;;;14.10;52.20;;;;;;5069261;28;20546;-61
2022/03/18 10:37:04;;;;;;;46.85;36.80;;;14.00;52.20;;;;;;5066993;28;20036;-62
2022/03/18 10:39:37;;;;;;;52.80;39.45;;;14.00;52.60;;;;;;5066720;28;20021;-61
2022/03/18 10:42:07;;;;;;;51.28;40.15;;;14.10;52.40;;;;;;5064394;28;20158;-61
2022/03/18 10:44:59;;;;;;;47.70;39.30;;;14.20;52.30;;;;;;5060482;28;20024;-60
2022/03/18 10:47:38;;;;;;;49.10;39.15;;;14.20;51.80;;;;;;5057586;28;20039;-61
2022/03/18 10:50:26;;;;;;;49.72;38.25;;;14.30;52.00;;;;;;5059031;28;20366;-61
2022/03/18 10:52:58;;;;;;;51.97;37.75;;;14.50;51.80;;;;;;5058186;28;20021;-62
2022/03/18 10:55:26;;;;;;;51.40;38.67;;;14.60;50.90;;;;;;5069160;28;20032;-62
2022/03/18 10:57:59;;;;;;;49.38;36.92;;;14.50;50.40;;;;;;5069593;28;20022;-63
2022/03/18 11:00:31;;;;;;;45.83;35.97;;;14.50;50.60;;;;;;5071661;28;20040;-61
2022/03/18 11:02:58;;;;;;;46.10;35.55;;;14.50;50.70;;;;;;5069644;28;20089;-62
2022/03/18 11:05:26;;;;;;;44.47;35.83;;;14.30;49.90;;;;;;5069499;28;20032;-60
2022/03/18 11:07:54;;;;;;;44.92;37.00;;;14.20;50.60;;;;;;5074858;28;20035;-69
2022/03/18 11:13:07;;;;;;;48.72;38.78;;;14.30;51.10;;;;;;5070940;28;20438;-63
2022/03/18 11:15:35;;;;;;;52.15;41.20;;;14.40;50.80;;;;;;5081089;28;20094;-62
2022/03/18 11:18:03;;;;;;;46.10;35.17;;;14.40;51.00;;;;;;5075197;28;20098;-63
2022/03/18 11:20:32;;;;;;;45.97;35.85;;;14.60;49.90;;;;;;5075780;28;20393;-63
2022/03/18 11:22:58;;;;;;;44.42;37.20;;;14.50;49.70;;;;;;5073915;28;20130;-63
2022/03/18 11:25:25;;;;;;;41.55;34.00;;;14.60;49.70;;;;;;5063849;28;20024;-61
2022/03/18 11:27:54;;;;;;;41.22;35.17;;;14.50;49.30;;;;;;5067612;28;20115;-71
2022/03/18 11:30:30;;;;;;;46.70;37.80;;;14.50;49.30;;;;;;5083154;28;20025;-62
2022/03/18 11:33:17;;;;;;;45.55;36.35;;;14.40;49.50;;;;;;5074192;28;20024;-65
2022/03/18 11:35:57;;;;;;;46.55;35.55;;;14.40;49.60;;;;;;5070170;28;20024;-63
2022/03/18 11:38:47;;;;;;;49.85;35.65;;;14.50;49.50;;;;;;5069787;28;20051;-66
2022/03/18 11:41:14;;;;;;;45.67;34.72;;;14.40;49.10;;;;;;5068058;28;20348;-64
2022/03/18 11:43:42;;;;;;;47.38;34.33;;;14.50;48.60;;;;;;5066692;28;20081;-62
2022/03/18 11:46:17;;;;;;;58.00;36.40;;;14.40;48.50;;;;;;5063342;28;20057;-64
2022/03/18 11:48:49;;;;;;;47.75;36.35;;;14.40;48.80;;;;;;5070006;28;20070;-61
2022/03/18 11:51:34;;;;;;;49.00;37.00;;;14.40;48.90;;;;;;5068172;28;20136;-63
2022/03/18 11:54:10;;;;;;;42.03;34.13;;;14.40;48.70;;;;;;5059393;28;20016;-62
2022/03/18 11:56:39;;;;;;;48.97;35.22;;;14.60;48.60;;;;;;5068419;28;20013;-63
2022/03/18 11:59:24;;;;;;;47.47;35.75;;;14.70;47.80;;;;;;5071881;28;20032;-65
2022/03/18 12:01:56;;;;;;;49.03;36.55;;;14.60;47.90;;;;;;5074596;28;20460;-61
2022/03/18 12:04:39;;;;;;;50.25;37.42;;;14.50;48.30;;;;;;5073719;28;20071;-62
2022/03/18 12:07:21;;;;;;;46.25;36.20;;;14.50;48.60;;;;;;5061349;28;20758;-64
2022/03/18 12:09:47;;;;;;;48.60;38.85;;;14.60;48.90;;;;;;5070238;28;20066;-65
2022/03/18 12:12:18;;;;;;;47.33;36.22;;;14.70;48.60;;;;;;5071670;28;20028;-69
2022/03/18 12:14:44;;;;;;;46.00;37.10;;;14.70;48.40;;;;;;5069528;28;20021;-63
2022/03/18 12:17:15;;;;;;;44.42;36.08;;;14.60;48.50;;;;;;5068179;28;20024;-59
2022/03/18 12:19:52;;;;;;;42.58;37.08;;;14.60;48.20;;;;;;5067719;28;20053;-66
2022/03/18 12:22:20;;;;;;;45.88;35.72;;;14.70;48.40;;;;;;5069111;28;20032;-61
2022/03/18 12:24:51;;;;;;;44.40;34.67;;;14.80;48.10;;;;;;5066817;28;20119;-59
2022/03/18 12:27:46;;;;;;;46.97;35.65;;;14.70;47.60;;;;;;5071277;28;20425;-66
2022/03/18 12:30:13;;;;;;;43.28;34.75;;;14.50;47.70;;;;;;5063346;28;20040;-65
2022/03/18 12:32:43;;;;;;;40.47;31.83;;;14.50;47.90;;;;;;5066518;28;20025;-72
2022/03/18 12:35:09;;;;;;;38.47;30.75;;;14.40;46.50;;;;;;5070469;28;20527;-61
2022/03/18 12:37:35;;;;;;;42.90;30.80;;;14.20;46.40;;;;;;5071268;28;20028;-62
2022/03/18 12:40:08;;;;;;;44.78;30.90;;;14.20;46.80;;;;;;5067868;28;20085;-64
2022/03/18 12:42:48;;;;;;;37.78;29.52;;;14.40;46.50;;;;;;5071155;28;20027;-60
2022/03/18 12:45:31;;;;;;;40.38;29.05;;;14.50;45.40;;;;;;5070146;28;20090;-64
2022/03/18 12:47:58;;;;;;;33.28;27.65;;;14.70;44.60;;;;;;5066989;28;20100;-63
2022/03/18 12:50:30;;;;;;;33.83;28.20;;;14.80;44.10;;;;;;5070763;28;20055;-61
2022/03/18 12:52:57;;;;;;;33.80;29.05;;;14.70;44.00;;;;;;5069789;28;20064;-62
2022/03/18 12:55:24;;;;;;;34.78;29.27;;;14.70;44.20;;;;;;5072590;28;20092;-68
2022/03/18 12:57:50;;;;;;;36.72;28.88;;;14.90;43.80;;;;;;5084554;28;20051;-62
2022/03/18 13:00:17;;;;;;;35.38;29.83;;;15.00;43.70;;;;;;5075879;28;20477;-62